createdAt,value
2019-05-25T00:01:33.464Z,13.00
2019-05-25T00:04:01.593Z,13.00
2019-05-25T00:06:29.906Z,13.00
2019-05-25T00:08:58.187Z,13.00
2019-05-25T00:11:26.500Z,13.00
2019-05-25T00:13:54.787Z,13.00
2019-05-25T00:16:23.095Z,13.00
2019-05-25T00:18:51.232Z,13.10
2019-05-25T00:21:19.344Z,13.10
2019-05-25T00:23:47.446Z,12.90
2019-05-25T00:26:15.651Z,12.90
2019-05-25T00:28:43.828Z,12.90
2019-05-25T00:31:12.158Z,12.90
2019-05-25T00:33:40.253Z,12.90
2019-05-25T00:36:08.577Z,12.90
2019-05-25T00:38:36.688Z,12.80
2019-05-25T00:41:04.906Z,12.80
2019-05-25T00:43:33.008Z,12.80
2019-05-25T00:46:01.233Z,12.70
2019-05-25T00:48:29.395Z,12.70
2019-05-25T00:50:57.437Z,12.70
2019-05-25T00:53:25.736Z,12.70
2019-05-25T00:55:53.856Z,12.70
2019-05-25T00:58:21.924Z,12.60
2019-05-25T01:00:50.090Z,12.60
2019-05-25T01:03:18.221Z,12.60
2019-05-25T01:05:46.354Z,12.60
2019-05-25T01:08:14.715Z,12.50
2019-05-25T01:10:42.789Z,12.50
2019-05-25T01:13:10.904Z,12.50
2019-05-25T01:15:39.028Z,12.60
2019-05-25T01:18:07.216Z,12.60
2019-05-25T01:20:35.483Z,12.60
2019-05-25T01:23:03.581Z,12.50
2019-05-25T01:25:31.790Z,12.50
2019-05-25T01:27:59.931Z,12.60
2019-05-25T01:30:28.469Z,12.60
2019-05-25T01:32:56.608Z,12.70
2019-05-25T01:35:24.782Z,12.70
2019-05-25T01:37:53.088Z,12.70
2019-05-25T01:40:21.264Z,12.60
2019-05-25T01:42:49.321Z,12.60
2019-05-25T01:45:17.471Z,12.50
2019-05-25T01:47:45.510Z,12.60
2019-05-25T01:50:14.052Z,12.60
2019-05-25T01:52:42.163Z,12.60
2019-05-25T01:55:11.604Z,12.60
2019-05-25T01:57:39.860Z,12.70
2019-05-25T02:00:09.190Z,12.70
2019-05-25T02:02:37.230Z,12.80
2019-05-25T02:05:06.637Z,12.70
2019-05-25T02:07:34.911Z,12.50
2019-05-25T02:10:04.732Z,12.50
2019-05-25T02:12:32.859Z,12.60
2019-05-25T02:15:01.001Z,12.60
2019-05-25T02:17:29.091Z,12.60
2019-05-25T02:19:57.215Z,12.50
2019-05-25T02:22:25.744Z,12.40
2019-05-25T02:24:53.873Z,12.40
2019-05-25T02:27:22.113Z,12.50
2019-05-25T02:29:50.203Z,12.50
2019-05-25T02:32:18.412Z,12.50
2019-05-25T02:34:46.582Z,12.40
2019-05-25T02:37:14.607Z,12.40
2019-05-25T02:39:42.800Z,12.40
2019-05-25T02:42:11.114Z,12.40
2019-05-25T02:44:39.150Z,12.50
2019-05-25T02:47:07.306Z,12.50
2019-05-25T02:49:35.358Z,12.50
2019-05-25T02:52:03.591Z,12.50
2019-05-25T02:54:32.300Z,12.50
2019-05-25T02:57:00.485Z,12.60
2019-05-25T02:59:28.580Z,12.60
2019-05-25T03:01:57.090Z,12.60
2019-05-25T03:04:25.236Z,12.60
2019-05-25T03:06:53.745Z,12.50
2019-05-25T03:09:24.437Z,12.40
2019-05-25T03:11:53.529Z,12.40
2019-05-25T03:14:21.826Z,12.50
2019-05-25T03:16:49.868Z,12.50
2019-05-25T03:19:18.162Z,12.50
2019-05-25T03:21:46.392Z,12.50
2019-05-25T03:24:14.532Z,12.60
2019-05-25T03:26:42.797Z,12.50
2019-05-25T03:29:10.973Z,12.60
2019-05-25T03:31:39.031Z,12.60
2019-05-25T03:34:07.399Z,12.50
2019-05-25T03:36:35.480Z,12.40
2019-05-25T03:39:06.362Z,12.40
2019-05-25T03:41:34.982Z,12.50
2019-05-25T03:44:03.347Z,12.50
2019-05-25T03:46:31.399Z,12.50
2019-05-25T03:48:59.690Z,12.60
2019-05-25T03:51:27.803Z,12.60
2019-05-25T03:53:55.868Z,12.60
2019-05-25T03:56:24.062Z,12.60
2019-05-25T03:58:52.075Z,12.60
2019-05-25T04:01:20.210Z,12.60
2019-05-25T04:03:48.400Z,12.60
2019-05-25T04:06:16.480Z,12.60
2019-05-25T04:08:44.769Z,12.60
2019-05-25T04:11:12.886Z,12.60
2019-05-25T04:13:40.958Z,12.70
2019-05-25T04:16:09.130Z,12.70
2019-05-25T04:18:37.189Z,12.60
2019-05-25T04:21:05.288Z,12.60
2019-05-25T04:23:33.502Z,12.60
2019-05-25T04:26:01.543Z,12.60
2019-05-25T04:28:30.689Z,12.60
2019-05-25T04:30:58.759Z,12.50
2019-05-25T04:33:26.960Z,12.60
2019-05-25T04:35:55.034Z,12.60
2019-05-25T04:38:23.079Z,12.70
2019-05-25T04:40:51.148Z,12.70
2019-05-25T04:43:19.515Z,12.70
2019-05-25T04:45:47.692Z,12.70
2019-05-25T04:48:15.999Z,12.70
2019-05-25T04:50:44.075Z,12.70
2019-05-25T04:53:12.278Z,12.80
2019-05-25T04:55:40.575Z,12.80
2019-05-25T04:58:08.682Z,12.80
2019-05-25T05:00:36.771Z,12.70
2019-05-25T05:05:52.906Z,12.80
2019-05-25T05:08:21.339Z,12.90
2019-05-25T05:11:14.642Z,12.90
2019-05-25T05:13:44.426Z,12.90
2019-05-25T05:16:12.628Z,12.80
2019-05-25T05:18:41.419Z,12.90
2019-05-25T05:21:10.463Z,12.90
2019-05-25T05:23:38.580Z,12.90
2019-05-25T05:26:06.892Z,13.00
2019-05-25T05:28:35.149Z,13.00
2019-05-25T05:31:03.346Z,12.90
2019-05-25T05:33:31.568Z,12.90
2019-05-25T05:36:01.404Z,12.90
2019-05-25T05:38:29.884Z,12.90
2019-05-25T05:41:00.112Z,13.00
2019-05-25T05:43:31.101Z,13.10
2019-05-25T05:46:01.267Z,13.10
2019-05-25T05:48:32.536Z,13.20
2019-05-25T05:51:02.503Z,13.20
2019-05-25T05:53:35.176Z,13.20
2019-05-25T05:56:03.563Z,13.20
2019-05-25T05:58:31.823Z,13.20
2019-05-25T06:00:59.908Z,13.20
2019-05-25T06:03:28.272Z,13.20
2019-05-25T06:05:56.355Z,13.30
2019-05-25T06:08:24.411Z,13.30
2019-05-25T06:10:52.488Z,13.30
2019-05-25T06:13:20.601Z,13.40
2019-05-25T06:15:48.634Z,13.40
2019-05-25T06:18:16.841Z,13.40
2019-05-25T06:20:44.885Z,13.40
2019-05-25T06:23:13.012Z,13.40
2019-05-25T06:25:41.303Z,13.50
2019-05-25T06:28:09.432Z,13.60
2019-05-25T06:30:37.587Z,13.50
2019-05-25T06:33:05.734Z,13.50
2019-05-25T06:35:33.803Z,13.40
2019-05-25T06:38:03.092Z,13.40
2019-05-25T06:40:31.388Z,13.40
2019-05-25T06:42:59.408Z,13.40
2019-05-25T06:45:27.606Z,13.40
2019-05-25T06:47:55.801Z,13.40
2019-05-25T06:50:24.111Z,13.40
2019-05-25T06:52:52.210Z,13.40
2019-05-25T06:55:20.284Z,13.40
2019-05-25T06:57:48.480Z,13.40
2019-05-25T07:00:18.539Z,13.40
2019-05-25T07:02:46.787Z,13.40
2019-05-25T07:05:14.911Z,13.40
2019-05-25T07:07:42.990Z,13.50
2019-05-25T07:10:11.405Z,13.50
2019-05-25T07:12:39.482Z,13.40
2019-05-25T07:15:09.530Z,13.40
2019-05-25T07:17:37.613Z,13.40
2019-05-25T07:20:06.029Z,13.50
2019-05-25T07:22:34.196Z,13.40
2019-05-25T07:25:03.264Z,13.30
2019-05-25T07:27:31.615Z,13.30
2019-05-25T07:29:59.787Z,13.30
2019-05-25T07:32:28.255Z,13.40
2019-05-25T07:34:56.313Z,13.40
2019-05-25T07:37:24.540Z,13.40
2019-05-25T07:39:52.726Z,13.50
2019-05-25T07:42:21.173Z,13.60
2019-05-25T07:44:49.358Z,13.90
2019-05-25T07:47:17.406Z,14.20
2019-05-25T07:49:45.454Z,14.40
2019-05-25T07:52:13.615Z,14.50
2019-05-25T07:54:41.870Z,14.50
2019-05-25T07:57:09.870Z,14.60
2019-05-25T07:59:38.293Z,14.60
2019-05-25T08:02:06.661Z,14.60
2019-05-25T08:04:35.031Z,14.50
2019-05-25T08:07:03.309Z,14.60
2019-05-25T08:09:31.558Z,14.70
2019-05-25T08:11:59.931Z,14.70
2019-05-25T08:14:28.140Z,14.80
2019-05-25T08:16:56.348Z,14.90
2019-05-25T08:19:24.578Z,15.00
2019-05-25T08:21:52.708Z,15.20
2019-05-25T08:24:20.793Z,15.20
2019-05-25T08:26:49.098Z,15.20
2019-05-25T08:29:17.259Z,14.90
2019-05-25T08:31:46.339Z,14.80
2019-05-25T08:34:14.438Z,14.70
2019-05-25T08:36:42.709Z,14.50
2019-05-25T08:39:10.752Z,14.40
2019-05-25T08:41:39.038Z,14.40
2019-05-25T08:44:07.158Z,14.30
2019-05-25T08:46:36.058Z,14.30
2019-05-25T08:49:04.305Z,14.30
2019-05-25T08:51:32.579Z,14.40
2019-05-25T08:54:00.734Z,14.50
2019-05-25T08:56:28.763Z,14.60
2019-05-25T08:58:56.839Z,14.50
2019-05-25T09:01:24.928Z,14.50
2019-05-25T09:03:53.055Z,14.60
2019-05-25T09:06:21.365Z,14.70
2019-05-25T09:08:49.432Z,14.80
2019-05-25T09:11:17.480Z,14.80
2019-05-25T09:13:45.596Z,14.70
2019-05-25T09:16:13.674Z,14.70
2019-05-25T09:18:41.824Z,14.70
2019-05-25T09:21:10.122Z,14.70
2019-05-25T09:23:38.374Z,14.70
2019-05-25T09:26:06.437Z,14.70
2019-05-25T09:28:34.565Z,14.70
2019-05-25T09:31:02.710Z,14.90
2019-05-25T09:33:31.367Z,15.00
2019-05-25T09:35:59.485Z,15.00
2019-05-25T09:38:27.881Z,14.90
2019-05-25T09:40:55.985Z,14.80
2019-05-25T09:43:24.022Z,14.80
2019-05-25T09:45:52.189Z,14.80
2019-05-25T09:48:20.389Z,14.80
2019-05-25T09:50:48.484Z,14.80
2019-05-25T09:53:17.362Z,15.00
2019-05-25T09:55:45.534Z,15.10
2019-05-25T09:58:13.656Z,15.20
2019-05-25T10:00:41.796Z,15.10
2019-05-25T10:03:10.051Z,15.20
2019-05-25T10:05:38.123Z,15.30
2019-05-25T10:08:06.287Z,15.40
2019-05-25T10:10:34.391Z,15.50
2019-05-25T10:13:02.581Z,15.60
2019-05-25T10:15:30.593Z,15.50
2019-05-25T10:17:58.626Z,15.40
2019-05-25T10:20:26.817Z,15.30
2019-05-25T10:22:55.045Z,15.40
2019-05-25T10:25:23.854Z,15.20
2019-05-25T10:27:52.176Z,15.10
2019-05-25T10:30:20.386Z,15.00
2019-05-25T10:32:48.684Z,15.00
2019-05-25T10:35:19.065Z,14.90
2019-05-25T10:37:47.097Z,15.00
2019-05-25T10:40:15.439Z,15.00
2019-05-25T10:42:44.552Z,15.00
2019-05-25T10:45:14.316Z,15.20
2019-05-25T10:47:42.332Z,15.30
2019-05-25T10:50:11.028Z,15.50
2019-05-25T10:52:39.354Z,15.60
2019-05-25T10:55:09.913Z,15.60
2019-05-25T10:57:38.243Z,15.60
2019-05-25T11:00:07.853Z,15.80
2019-05-25T11:02:37.087Z,15.90
2019-05-25T11:05:05.745Z,15.80
2019-05-25T11:07:33.783Z,15.80
2019-05-25T11:10:02.086Z,15.70
2019-05-25T11:12:30.410Z,15.30
2019-05-25T11:14:58.488Z,15.20
2019-05-25T11:17:26.546Z,15.20
2019-05-25T11:19:54.584Z,15.20
2019-05-25T11:22:22.879Z,15.20
2019-05-25T11:24:51.239Z,15.30
2019-05-25T11:27:19.356Z,15.40
2019-05-25T11:29:47.508Z,15.50
2019-05-25T11:32:15.633Z,15.60
2019-05-25T11:34:43.738Z,15.50
2019-05-25T11:37:15.455Z,15.60
2019-05-25T11:39:42.065Z,15.70
2019-05-25T11:42:10.156Z,15.70
2019-05-25T11:44:38.349Z,15.80
2019-05-25T11:47:06.464Z,15.90
2019-05-25T11:49:34.597Z,16.00
2019-05-25T11:52:02.720Z,16.10
2019-05-25T11:54:30.987Z,16.00
2019-05-25T11:56:59.114Z,16.10
2019-05-25T11:59:27.249Z,16.10
2019-05-25T12:01:55.527Z,16.20
2019-05-25T12:04:23.571Z,16.30
2019-05-25T12:06:51.619Z,16.30
2019-05-25T12:09:19.850Z,16.40
2019-05-25T12:11:48.025Z,16.50
2019-05-25T12:14:16.037Z,16.50
2019-05-25T12:16:44.258Z,16.40
2019-05-25T12:19:14.845Z,16.10
2019-05-25T12:21:42.482Z,16.00
2019-05-25T12:24:10.543Z,15.90
2019-05-25T12:26:38.669Z,15.70
2019-05-25T12:29:06.848Z,15.90
2019-05-25T12:31:34.935Z,15.90
2019-05-25T12:34:03.182Z,15.90
2019-05-25T12:36:31.317Z,16.00
2019-05-25T12:38:59.462Z,16.10
2019-05-25T12:41:27.576Z,16.10
2019-05-25T12:43:55.662Z,16.00
2019-05-25T12:46:23.772Z,16.10
2019-05-25T12:48:51.827Z,16.10
2019-05-25T12:51:19.861Z,16.00
2019-05-25T12:53:48.022Z,15.90
2019-05-25T12:56:16.085Z,15.80
2019-05-25T12:58:44.163Z,15.70
2019-05-25T13:01:12.295Z,15.60
2019-05-25T13:03:40.416Z,15.70
2019-05-25T13:06:08.528Z,15.70
2019-05-25T13:08:36.821Z,15.60
2019-05-25T13:11:05.071Z,15.60
2019-05-25T13:13:33.124Z,15.60
2019-05-25T13:16:01.240Z,15.60
2019-05-25T13:18:29.418Z,15.50
2019-05-25T13:20:57.643Z,15.50
2019-05-25T13:23:25.871Z,15.40
2019-05-25T13:25:54.314Z,15.40
2019-05-25T13:28:22.573Z,15.50
2019-05-25T13:30:50.785Z,15.60
2019-05-25T13:33:19.020Z,15.40
2019-05-25T13:35:47.188Z,15.30
2019-05-25T13:38:15.923Z,15.20
2019-05-25T13:40:45.348Z,15.00
2019-05-25T13:43:13.480Z,15.00
2019-05-25T13:45:41.688Z,14.90
2019-05-25T13:48:09.864Z,14.90
2019-05-25T13:50:38.195Z,15.00
2019-05-25T13:53:06.788Z,15.10
2019-05-25T13:55:35.080Z,15.20
2019-05-25T13:58:03.544Z,15.40
2019-05-25T14:00:32.123Z,15.40
2019-05-25T14:03:00.469Z,15.50
2019-05-25T14:05:28.670Z,15.60
2019-05-25T14:07:57.044Z,15.60
2019-05-25T14:10:26.269Z,15.60
2019-05-25T14:12:54.697Z,15.60
2019-05-25T14:15:23.227Z,15.40
2019-05-25T14:17:51.736Z,15.20
2019-05-25T14:20:20.118Z,15.00
2019-05-25T14:22:48.797Z,14.80
2019-05-25T14:25:17.135Z,14.70
2019-05-25T14:27:45.506Z,14.70
2019-05-25T14:30:14.545Z,14.70
2019-05-25T14:32:42.927Z,14.70
2019-05-25T14:35:11.243Z,14.70
2019-05-25T14:37:39.761Z,14.60
2019-05-25T14:40:11.494Z,14.60
2019-05-25T14:42:39.478Z,14.60
2019-05-25T14:45:09.236Z,14.60
2019-05-25T14:47:37.501Z,14.60
2019-05-25T14:50:06.682Z,14.50
2019-05-25T14:52:34.883Z,14.50
2019-05-25T14:55:03.531Z,14.40
2019-05-25T14:57:32.170Z,14.30
2019-05-25T15:00:00.686Z,14.30
2019-05-25T15:02:28.870Z,14.30
2019-05-25T15:04:57.042Z,14.20
2019-05-25T15:07:25.239Z,14.30
2019-05-25T15:09:53.411Z,14.30
2019-05-25T15:12:21.724Z,14.20
2019-05-25T15:14:49.835Z,14.20
2019-05-25T15:17:18.002Z,14.10
2019-05-25T15:19:46.296Z,14.00
2019-05-25T15:22:14.564Z,14.00
2019-05-25T15:24:42.929Z,14.10
2019-05-25T15:27:11.310Z,14.20
2019-05-25T15:29:39.567Z,14.20
2019-05-25T15:32:19.457Z,14.20
2019-05-25T15:34:38.661Z,14.20
2019-05-25T15:37:06.859Z,14.30
2019-05-25T15:39:35.263Z,14.40
2019-05-25T15:42:03.879Z,14.30
2019-05-25T15:44:32.049Z,14.30
2019-05-25T15:47:04.902Z,14.40
2019-05-25T15:49:33.697Z,14.40
2019-05-25T15:52:02.846Z,14.40
2019-05-25T15:55:10.191Z,14.50
2019-05-25T15:57:38.490Z,14.50
2019-05-25T16:00:08.356Z,14.60
2019-05-25T16:02:37.273Z,14.70
2019-05-25T16:05:07.586Z,14.70
2019-05-25T16:07:41.559Z,14.70
2019-05-25T16:10:10.522Z,14.70
2019-05-25T16:12:39.034Z,14.60
2019-05-25T16:15:08.063Z,14.60
2019-05-25T16:17:37.372Z,14.40
2019-05-25T16:20:05.785Z,14.50
2019-05-25T16:22:34.162Z,14.40
2019-05-25T16:25:02.369Z,14.50
2019-05-25T16:27:33.780Z,14.60
2019-05-25T16:30:01.981Z,14.70
2019-05-25T16:32:30.184Z,14.80
2019-05-25T16:34:58.442Z,14.90
2019-05-25T16:37:26.594Z,14.90
2019-05-25T16:39:54.866Z,14.90
2019-05-25T16:42:23.186Z,14.80
2019-05-25T16:44:51.565Z,14.80
2019-05-25T16:47:19.928Z,14.70
2019-05-25T16:49:48.108Z,14.60
2019-05-25T16:52:16.159Z,14.40
2019-05-25T16:54:44.293Z,14.20
2019-05-25T16:57:12.431Z,14.10
2019-05-25T16:59:40.676Z,14.10
2019-05-25T17:02:08.968Z,14.00
2019-05-25T17:04:37.294Z,14.00
2019-05-25T17:07:05.514Z,14.10
2019-05-25T17:09:33.721Z,14.20
2019-05-25T17:12:01.970Z,14.30
2019-05-25T17:14:30.085Z,14.30
2019-05-25T17:16:58.446Z,14.40
2019-05-25T17:19:26.852Z,14.40
2019-05-25T17:21:55.594Z,14.40
2019-05-25T17:24:24.064Z,14.50
2019-05-25T17:26:53.455Z,14.50
2019-05-25T17:29:21.708Z,14.60
2019-05-25T17:31:50.109Z,14.70
2019-05-25T17:34:18.634Z,14.70
2019-05-25T17:36:47.095Z,14.70
2019-05-25T17:39:15.467Z,14.60
2019-05-25T17:41:43.762Z,14.50
2019-05-25T17:44:11.924Z,14.40
2019-05-25T17:46:40.411Z,14.20
2019-05-25T17:49:08.826Z,14.10
2019-05-25T17:51:37.039Z,14.10
2019-05-25T17:54:05.834Z,14.10
2019-05-25T17:56:34.026Z,14.00
2019-05-25T17:59:02.178Z,14.00
2019-05-25T18:01:30.506Z,13.90
2019-05-25T18:04:07.693Z,13.90
2019-05-25T18:06:28.920Z,13.80
2019-05-25T18:08:57.168Z,13.70
2019-05-25T18:11:25.406Z,13.60
2019-05-25T18:13:54.732Z,13.60
2019-05-25T18:16:23.052Z,13.60
2019-05-25T18:18:51.215Z,13.60
2019-05-25T18:21:19.284Z,13.60
2019-05-25T18:23:47.432Z,13.60
2019-05-25T18:26:15.545Z,13.60
2019-05-25T18:28:43.716Z,13.60
2019-05-25T18:31:11.954Z,13.60
2019-05-25T18:33:40.001Z,13.50
2019-05-25T18:36:08.171Z,13.40
2019-05-25T18:38:36.302Z,13.30
2019-05-25T18:41:04.346Z,13.30
2019-05-25T18:43:32.387Z,13.30
2019-05-25T18:46:00.499Z,13.30
2019-05-25T18:48:28.562Z,13.20
2019-05-25T18:50:56.684Z,13.20
2019-05-25T18:53:25.046Z,13.20
2019-05-25T18:55:53.212Z,13.20
2019-05-25T18:58:21.536Z,13.20
2019-05-25T19:00:49.647Z,13.10
2019-05-25T19:03:17.733Z,13.00
2019-05-25T19:05:45.768Z,13.00
2019-05-25T19:08:13.800Z,13.10
2019-05-25T19:10:47.184Z,13.10
2019-05-25T19:13:15.760Z,13.10
2019-05-25T19:15:43.853Z,13.10
2019-05-25T19:18:13.144Z,13.10
2019-05-25T19:20:41.313Z,13.00
2019-05-25T19:23:09.484Z,13.00
2019-05-25T19:25:37.531Z,13.10
2019-05-25T19:28:09.213Z,13.00
2019-05-25T19:30:37.719Z,13.00
2019-05-25T19:33:05.892Z,13.10
2019-05-25T19:35:34.090Z,13.10
2019-05-25T19:38:02.668Z,13.00
2019-05-25T19:40:32.693Z,13.00
2019-05-25T19:43:00.916Z,13.00
2019-05-25T19:45:29.031Z,13.00
2019-05-25T19:47:57.151Z,13.00
2019-05-25T19:50:25.425Z,13.10
2019-05-25T19:52:53.498Z,13.00
2019-05-25T19:55:21.712Z,13.00
2019-05-25T19:57:50.353Z,13.00
2019-05-25T20:00:18.751Z,12.90
2019-05-25T20:02:46.853Z,12.90
2019-05-25T20:05:17.544Z,13.00
2019-05-25T20:07:45.945Z,13.00
2019-05-25T20:10:14.496Z,13.10
2019-05-25T20:12:42.685Z,13.10
2019-05-25T20:15:11.953Z,13.10
2019-05-25T20:17:40.111Z,13.10
2019-05-25T20:20:09.287Z,13.10
2019-05-25T20:22:37.576Z,13.20
2019-05-25T20:25:06.006Z,13.10
2019-05-25T20:27:34.105Z,13.10
2019-05-25T20:30:02.267Z,13.10
2019-05-25T20:32:30.595Z,13.10
2019-05-25T20:34:58.898Z,13.10
2019-05-25T20:37:26.965Z,13.10
2019-05-25T20:39:55.175Z,13.00
2019-05-25T20:42:23.163Z,13.00
2019-05-25T20:44:51.406Z,13.00
2019-05-25T20:47:19.524Z,13.00
2019-05-25T20:49:47.710Z,12.90
2019-05-25T20:52:16.183Z,12.90
2019-05-25T20:54:44.541Z,12.90
2019-05-25T20:57:12.653Z,12.90
2019-05-25T20:59:40.784Z,12.90
2019-05-25T21:02:10.766Z,12.90
2019-05-25T21:04:38.957Z,12.80
2019-05-25T21:07:07.250Z,12.80
2019-05-25T21:09:35.412Z,12.70
2019-05-25T21:12:03.544Z,12.70
2019-05-25T21:14:31.609Z,12.60
2019-05-25T21:16:59.753Z,12.60
2019-05-25T21:19:27.973Z,12.60
2019-05-25T21:21:56.265Z,12.60
2019-05-25T21:24:24.352Z,12.60
2019-05-25T21:26:52.596Z,12.60
2019-05-25T21:29:20.750Z,12.60
2019-05-25T21:31:48.826Z,12.50
2019-05-25T21:34:17.244Z,12.50
2019-05-25T21:36:45.657Z,12.50
2019-05-25T21:39:13.769Z,12.50
2019-05-25T21:41:42.123Z,12.50
2019-05-25T21:44:10.319Z,12.40
2019-05-25T21:46:38.393Z,12.40
2019-05-25T21:49:06.540Z,12.40
2019-05-25T21:51:55.782Z,12.40
2019-05-25T21:54:24.128Z,12.40
2019-05-25T21:56:52.215Z,12.30
2019-05-25T21:59:20.688Z,12.30
2019-05-25T22:01:48.766Z,12.30
2019-05-25T22:04:17.249Z,12.30
2019-05-25T22:06:45.470Z,12.20
2019-05-25T22:09:13.948Z,12.20
2019-05-25T22:11:42.272Z,12.10
2019-05-25T22:14:10.671Z,12.80
2019-05-25T22:16:38.907Z,12.50
2019-05-25T22:19:07.095Z,12.40
2019-05-25T22:21:35.437Z,12.30
2019-05-25T22:24:03.587Z,12.20
2019-05-25T22:26:31.871Z,12.20
2019-05-25T22:29:00.366Z,12.20
2019-05-25T22:31:28.404Z,12.20
2019-05-25T22:33:59.279Z,12.10
2019-05-25T22:36:39.224Z,12.10
2019-05-25T22:38:56.971Z,12.00
2019-05-25T22:41:25.492Z,12.00
2019-05-25T22:43:53.902Z,11.90
2019-05-25T22:46:22.170Z,11.90
2019-05-25T22:48:50.379Z,11.90
2019-05-25T22:51:18.498Z,11.80
2019-05-25T22:53:46.533Z,11.80
2019-05-25T22:56:14.593Z,11.80
2019-05-25T22:58:42.792Z,11.80
2019-05-25T23:01:10.925Z,11.80
2019-05-25T23:03:39.152Z,11.80
2019-05-25T23:06:07.548Z,11.80
2019-05-25T23:08:35.703Z,11.80
2019-05-25T23:11:03.853Z,11.80
2019-05-25T23:13:32.051Z,11.80
2019-05-25T23:16:00.181Z,11.70
2019-05-25T23:18:28.343Z,11.70
2019-05-25T23:20:57.682Z,11.70
2019-05-25T23:23:25.995Z,11.70
2019-05-25T23:25:54.191Z,11.70
2019-05-25T23:28:22.262Z,11.70
2019-05-25T23:30:50.444Z,11.70
2019-05-25T23:33:18.664Z,11.70
2019-05-25T23:35:46.984Z,11.70
2019-05-25T23:38:15.211Z,11.70
2019-05-25T23:40:43.402Z,11.80
2019-05-25T23:43:11.571Z,11.80
2019-05-25T23:45:39.945Z,11.80
2019-05-25T23:48:08.109Z,11.80
2019-05-25T23:50:36.442Z,11.80
2019-05-25T23:53:04.881Z,11.80
2019-05-25T23:55:33.066Z,11.80
2019-05-25T23:58:01.334Z,11.70
